createdAt,value
2024-03-03T21:00:29.212Z,65.27
2024-03-03T21:02:58.874Z,65.14
2024-03-03T21:05:26.727Z,64.77
2024-03-03T21:07:54.386Z,64.51
2024-03-03T21:10:23.239Z,65.14
2024-03-03T21:12:51.055Z,65.02
2024-03-03T21:15:21.310Z,65.39
2024-03-03T21:17:49.679Z,65.16
2024-03-03T21:20:17.193Z,64.98
2024-03-03T21:22:44.700Z,64.54
2024-03-03T21:25:14.896Z,64.78
2024-03-03T21:27:42.707Z,64.99
2024-03-03T21:30:11.024Z,64.33
2024-03-03T21:32:38.580Z,64.57
2024-03-03T21:35:06.520Z,64.13
2024-03-03T21:37:34.086Z,64.89
2024-03-03T21:40:01.915Z,64.71
2024-03-03T21:42:30.067Z,65.08
2024-03-03T21:44:57.558Z,64.69
2024-03-03T21:47:26.479Z,64.54
2024-03-03T21:49:53.930Z,64.40
2024-03-03T21:52:21.701Z,64.17
2024-03-03T21:54:49.832Z,64.51
2024-03-03T21:57:17.304Z,64.51
2024-03-03T21:59:44.846Z,64.94
2024-03-03T22:02:12.491Z,64.50
2024-03-03T22:04:40.298Z,65.04
2024-03-03T22:07:09.282Z,64.61
2024-03-03T22:09:36.817Z,64.45
2024-03-03T22:12:04.568Z,64.03
2024-03-03T22:14:32.001Z,63.76
2024-03-03T22:16:59.647Z,63.59
2024-03-03T22:19:27.840Z,63.99
2024-03-03T22:21:55.544Z,63.96
2024-03-03T22:24:23.309Z,64.01
2024-03-03T22:26:50.743Z,63.99
2024-03-03T22:29:19.068Z,63.92
2024-03-03T22:31:46.600Z,63.92
2024-03-03T22:34:14.290Z,63.55
2024-03-03T22:36:41.806Z,64.00
2024-03-03T22:39:09.458Z,64.09
2024-03-03T22:41:36.889Z,63.54
2024-03-03T22:44:05.744Z,64.13
2024-03-03T22:46:34.496Z,63.35
2024-03-03T22:49:02.537Z,63.80
2024-03-03T22:51:30.795Z,63.74
2024-03-03T22:53:58.400Z,63.60
2024-03-03T22:56:26.057Z,63.32
2024-03-03T22:58:53.927Z,63.62
2024-03-03T23:01:21.498Z,63.74
2024-03-03T23:03:49.090Z,63.71
2024-03-03T23:06:16.486Z,64.44
2024-03-03T23:08:43.959Z,64.51
2024-03-03T23:11:12.015Z,64.39
2024-03-03T23:13:39.896Z,63.95
2024-03-03T23:16:08.079Z,63.73
2024-03-03T23:18:35.454Z,63.87
2024-03-03T23:21:03.009Z,63.77
2024-03-03T23:23:30.959Z,63.63
2024-03-03T23:25:58.373Z,63.97
2024-03-03T23:28:26.924Z,63.38
2024-03-03T23:30:54.580Z,63.03
2024-03-03T23:33:21.964Z,63.20
2024-03-03T23:35:49.335Z,62.98
2024-03-03T23:38:17.112Z,63.09
2024-03-03T23:40:44.728Z,63.02
2024-03-03T23:43:12.739Z,63.18
2024-03-03T23:45:40.272Z,63.29
2024-03-03T23:48:08.075Z,63.15
2024-03-03T23:50:35.539Z,63.26
2024-03-03T23:53:03.180Z,63.42
2024-03-03T23:55:30.520Z,63.04
2024-03-03T23:57:58.058Z,63.04
